Time;durP1;ratioP1;P1;durP2;ratioP2;P2;SDS_P1;SDS_P2;PMS_P1;PMS_P2;Temp;Humidity;BMP_temperature;BMP_pressure;BME280_temperature;BME280_humidity;BME280_pressure;Samples;Min_cycle;Max_cycle;Signal;HPM_P1;HPM_P2
2022/05/09 00:01:19;;;;;;;10.52;5.60;;;;;;;17.47;56.51;101008.72;5350345;32;34669;-95
2022/05/09 00:04:22;;;;;;;12.20;5.93;;;;;;;17.76;55.53;101010.56;5370201;32;35712;-93
2022/05/09 00:07:25;;;;;;;;;;;;;;;17.31;56.83;101009.59;5376094;32;32671;-94
2022/05/09 00:10:28;;;;;;;9.15;5.60;;;;;;;17.33;57.11;101007.72;5365214;32;33375;-94
2022/05/09 00:13:30;;;;;;;9.73;5.68;;;;;;;17.48;57.20;101008.62;5363997;32;33007;-92
2022/05/09 00:16:34;;;;;;;11.50;5.60;;;;;;;17.87;55.83;101005.47;5352252;32;35970;-93
2022/05/09 00:19:37;;;;;;;9.83;5.70;;;;;;;17.43;57.52;101007.19;5381733;32;37430;-93
2022/05/09 00:22:49;;;;;;;10.18;5.70;;;;;;;17.21;58.89;101010.22;5364715;32;32969;-93
2022/05/09 00:25:51;;;;;;;12.50;5.87;;;;;;;17.07;59.35;101000.38;5368116;32;33091;-93
2022/05/09 00:28:54;;;;;;;12.50;5.78;;;;;;;16.66;61.17;101003.47;5362926;32;34884;-94
2022/05/09 00:31:57;;;;;;;9.45;6.22;;;;;;;16.62;61.58;101009.91;5364420;32;34289;-94
2022/05/09 00:34:59;;;;;;;11.55;5.65;;;;;;;16.76;61.32;101007.41;5369891;32;35209;-94
2022/05/09 00:38:02;;;;;;;9.00;5.68;;;;;;;16.48;62.09;101009.78;5359183;32;33056;-95
2022/05/09 00:44:27;;;;;;;9.87;5.77;;;;;;;16.58;61.62;101007.50;5376489;32;33946;-94
2022/05/09 00:47:30;;;;;;;11.47;5.90;;;;;;;16.59;61.46;101010.06;5371180;32;34841;-93
2022/05/09 00:50:32;;;;;;;;;;;;;;;16.98;60.25;101011.50;5382347;32;35218;-92
2022/05/09 00:53:36;;;;;;;10.85;5.60;;;;;;;17.40;58.30;101012.69;5360039;32;33376;-93
2022/05/09 00:57:14;;;;;;;8.83;5.60;;;;;;;16.54;61.23;101012.09;5387076;32;34244;-92
2022/05/09 01:00:18;;;;;;;10.73;6.27;;;;;;;16.31;62.09;101017.81;5381183;32;34332;-93
2022/05/09 01:03:40;;;;;;;9.63;5.77;;;;;;;16.30;62.57;101024.06;5359394;32;36466;-91
2022/05/09 01:06:43;;;;;;;9.65;6.00;;;;;;;16.46;62.11;101027.59;5370275;32;42763;-93
2022/05/09 01:09:46;;;;;;;10.32;6.45;;;;;;;16.45;62.00;101020.56;5370380;32;34850;-95
2022/05/09 01:12:50;;;;;;;11.32;6.00;;;;;;;16.24;62.81;101030.53;5376417;32;34321;-94
2022/05/09 01:15:53;;;;;;;;;;;;;;;16.59;61.61;101018.03;5346104;32;35789;-93
2022/05/09 01:18:58;;;;;;;8.77;5.62;;;;;;;16.10;63.79;101028.59;5356809;32;35333;-94
2022/05/09 01:22:02;;;;;;;10.70;6.20;;;;;;;16.70;61.24;101028.09;5363710;32;34871;-93
2022/05/09 01:25:08;;;;;;;10.17;5.97;;;;;;;17.06;59.32;101028.72;5361910;32;34009;-94
2022/05/09 01:28:11;;;;;;;10.47;5.87;;;;;;;16.34;62.01;101029.09;5362674;32;44806;-94
2022/05/09 01:31:17;;;;;;;14.00;6.25;;;;;;;16.04;63.18;101031.56;5352661;32;36953;-94
2022/05/09 01:34:20;;;;;;;11.80;6.00;;;;;;;15.62;65.00;101032.78;5384099;32;36617;-94
2022/05/09 01:37:23;;;;;;;11.32;6.75;;;;;;;16.11;63.30;101038.28;5371712;32;32937;-93
2022/05/09 01:40:25;;;;;;;10.50;6.33;;;;;;;16.10;63.10;101040.97;5363198;32;35794;-92
2022/05/09 01:43:29;;;;;;;10.32;5.72;;;;;;;15.93;63.74;101039.22;5361483;32;36350;-92
2022/05/09 01:46:32;;;;;;;12.80;5.80;;;;;;;15.91;63.80;101035.78;5367785;32;35141;-92
2022/05/09 01:49:35;;;;;;;10.70;6.10;;;;;;;15.92;63.36;101037.50;5371636;32;33712;-94
2022/05/09 01:52:39;;;;;;;10.30;6.27;;;;;;;15.60;64.63;101039.94;5368340;32;34167;-93
2022/05/09 01:55:42;;;;;;;8.57;5.40;;;;;;;16.21;62.61;101035.97;5372971;32;44356;-95
2022/05/09 01:58:44;;;;;;;8.68;5.50;;;;;;;17.09;58.83;101033.00;5373310;32;35179;-95
2022/05/09 02:01:50;;;;;;;8.45;5.30;;;;;;;17.22;57.76;101023.41;5350527;32;35613;-93
2022/05/09 02:04:52;;;;;;;9.00;5.73;;;;;;;16.47;60.23;101029.31;5368175;32;34927;-92
2022/05/09 02:07:55;;;;;;;10.93;5.65;;;;;;;16.22;61.11;101033.25;5365664;32;34436;-92
2022/05/09 02:10:58;;;;;;;10.57;5.85;;;;;;;15.97;62.50;101027.50;5381626;32;34603;-94
2022/05/09 02:14:01;;;;;;;9.32;5.80;;;;;;;16.34;60.95;101023.78;5346848;32;34768;-93
2022/05/09 02:17:08;;;;;;;10.17;6.43;;;;;;;16.55;60.39;101027.13;5355920;32;35683;-94
2022/05/09 02:20:13;;;;;;;10.30;6.17;;;;;;;16.91;58.97;101032.22;5358325;32;43031;-95
2022/05/09 02:23:17;;;;;;;12.07;6.03;;;;;;;16.30;61.22;101024.06;5360770;32;33997;-94
2022/05/09 02:26:19;;;;;;;10.20;6.47;;;;;;;16.10;62.36;101031.25;5381619;32;35055;-93
2022/05/09 02:29:22;;;;;;;11.50;6.43;;;;;;;16.07;62.55;101028.75;5361113;32;35219;-94
2022/05/09 02:32:25;;;;;;;9.93;6.53;;;;;;;16.63;60.75;101027.56;5358273;32;34912;-92
2022/05/09 02:35:28;;;;;;;11.63;7.28;;;;;;;17.32;57.92;101037.00;5363752;32;34351;-94
2022/05/09 02:38:31;;;;;;;11.53;6.57;;;;;;;16.64;60.43;101034.56;5350474;32;34197;-95
2022/05/09 02:41:33;;;;;;;14.93;8.00;;;;;;;15.88;63.80;101044.72;5383885;32;34479;-93
2022/05/09 02:44:37;;;;;;;13.07;6.68;;;;;;;15.92;63.89;101043.66;5376063;32;34640;-93
2022/05/09 02:47:40;;;;;;;17.00;7.25;;;;;;;16.42;61.88;101044.59;5381574;32;34316;-94
2022/05/09 02:50:42;;;;;;;11.93;7.40;;;;;;;15.97;63.38;101046.06;5351027;32;44582;-93
2022/05/09 02:53:45;;;;;;;12.52;6.55;;;;;;;16.07;63.05;101049.97;5379370;32;34322;-92
2022/05/09 02:56:48;;;;;;;14.05;7.22;;;;;;;16.20;61.34;101042.22;5372223;32;34128;-95
2022/05/09 02:59:50;;;;;;;11.75;7.18;;;;;;;16.80;59.83;101037.25;5352610;32;33360;-93
2022/05/09 03:06:15;;;;;;;11.30;6.27;;;;;;;16.05;62.47;101054.50;5357061;32;43429;-95
2022/05/09 03:09:17;;;;;;;9.80;6.78;;;;;;;16.08;62.61;101051.66;5362019;32;34800;-94
2022/05/09 03:12:20;;;;;;;13.60;7.28;;;;;;;15.41;65.11;101050.56;5368111;32;34184;-94
2022/05/09 03:15:22;;;;;;;16.87;6.25;;;;;;;16.16;62.54;101056.56;5358365;32;34518;-93
2022/05/09 03:18:25;;;;;;;10.83;6.67;;;;;;;15.59;64.86;101054.13;5373537;32;35545;-93
2022/05/09 03:21:28;;;;;;;12.00;6.60;;;;;;;15.91;63.16;101062.31;5351270;32;34765;-95
2022/05/09 03:24:31;;;;;;;11.15;7.07;;;;;;;16.30;61.35;101059.38;5385414;32;34809;-94
2022/05/09 03:27:34;;;;;;;11.73;6.40;;;;;;;16.13;61.51;101046.13;5371262;32;33394;-93
2022/05/09 03:30:37;;;;;;;12.20;6.50;;;;;;;15.97;62.46;101056.66;5358817;32;36913;-94
2022/05/09 03:33:41;;;;;;;14.73;6.43;;;;;;;16.32;60.88;101059.31;5347041;32;38284;-95
2022/05/09 03:36:43;;;;;;;11.03;6.13;;;;;;;16.36;60.54;101058.19;5361072;32;35961;-92
2022/05/09 03:39:46;;;;;;;9.63;5.82;;;;;;;17.36;56.96;101054.50;5374524;32;33262;-95
2022/05/09 03:42:49;;;;;;;10.13;5.75;;;;;;;17.27;57.19;101063.87;5354646;32;32937;-95
2022/05/09 03:45:53;;;;;;;11.00;6.13;;;;;;;15.95;61.97;101071.78;5389578;32;34702;-93
2022/05/09 03:48:56;;;;;;;11.77;6.10;;;;;;;16.28;60.69;101069.19;5366456;32;35717;-92
2022/05/09 03:51:59;;;;;;;10.35;6.82;;;;;;;16.62;58.94;101063.00;5375167;32;34560;-92
2022/05/09 03:55:03;;;;;;;12.03;5.77;;;;;;;16.82;58.60;101069.91;5353110;32;35065;-94
2022/05/09 03:58:05;;;;;;;17.67;6.55;;;;;;;16.66;59.36;101077.78;5376516;32;34641;-93
2022/05/09 04:01:08;;;;;;;;;;;;;;;17.17;57.79;101067.97;5390009;32;37285;-92
2022/05/09 04:04:12;;;;;;;12.60;7.57;;;;;;;17.37;56.49;101081.94;5346847;32;44739;-93
2022/05/09 04:07:14;;;;;;;9.70;5.60;;;;;;;17.43;56.46;101081.59;5377066;32;34065;-95
2022/05/09 04:10:22;;;;;;;10.93;6.12;;;;;;;16.60;59.75;101083.44;5355924;32;36224;-92
2022/05/09 04:13:25;;;;;;;12.47;6.13;;;;;;;16.44;60.65;101082.53;5357714;32;34387;-94
2022/05/09 04:19:48;;;;;;;16.77;8.23;;;;;;;16.71;59.48;101085.56;5362810;32;43250;-92
2022/05/09 04:22:51;;;;;;;10.02;5.75;;;;;;;17.37;57.59;101089.91;5367612;32;34592;-93
2022/05/09 04:25:54;;;;;;;8.73;5.70;;;;;;;17.69;56.00;101088.06;5368589;32;34004;-95
2022/05/09 04:28:56;;;;;;;12.85;5.90;;;;;;;17.37;56.53;101090.75;5391781;32;33859;-93
2022/05/09 04:31:59;;;;;;;12.52;6.30;;;;;;;17.81;54.84;101088.25;5373805;32;34516;-94
2022/05/09 04:35:02;;;;;;;9.57;5.35;;;;;;;17.80;55.21;101097.19;5345262;32;35223;-93
2022/05/09 04:38:06;;;;;;;10.60;5.47;;;;;;;18.69;52.99;101089.22;5385605;32;34688;-93
2022/05/09 04:41:10;;;;;;;10.68;5.37;;;;;;;19.01;51.88;101092.56;5370479;32;34044;-92
2022/05/09 04:44:12;;;;;;;16.40;6.00;;;;;;;19.00;51.45;101087.28;5387253;32;44384;-93
2022/05/09 04:47:15;;;;;;;8.80;5.28;;;;;;;19.06;50.97;101094.91;5347007;32;36081;-95
2022/05/09 04:50:21;;;;;;;12.35;6.30;;;;;;;19.94;48.37;101102.47;5349171;32;35295;-95
2022/05/09 04:53:25;;;;;;;11.98;6.22;;;;;;;19.71;49.11;101089.84;5353740;32;33763;-92
2022/05/09 04:56:28;;;;;;;13.45;6.32;;;;;;;19.40;49.87;101096.28;5364920;32;34387;-94
2022/05/09 04:59:31;;;;;;;8.80;5.15;;;;;;;19.09;50.70;101100.91;5378355;32;34521;-94
2022/05/09 05:02:34;;;;;;;13.13;5.85;;;;;;;19.46;50.03;101099.41;5379952;32;34776;-92
2022/05/09 05:05:37;;;;;;;11.00;5.70;;;;;;;19.92;48.78;101095.56;5371610;32;35451;-93
2022/05/09 05:08:40;;;;;;;13.05;5.53;;;;;;;19.24;50.01;101093.72;5354981;32;43595;-93
2022/05/09 05:11:43;;;;;;;;;;;;;;;18.58;52.04;101103.16;5363088;32;35946;-94
2022/05/09 05:14:45;;;;;;;14.43;6.13;;;;;;;19.84;48.46;101098.75;5369984;32;38568;-94
2022/05/09 05:17:49;;;;;;;11.40;5.82;;;;;;;19.07;50.60;101104.63;5365481;32;36774;-93
2022/05/09 05:20:52;;;;;;;;;;;;;;;19.74;48.84;101100.28;5384101;32;33871;-94
2022/05/09 05:23:56;;;;;;;13.93;7.22;;;;;;;19.27;50.35;101114.87;5352139;32;34735;-94
2022/05/09 05:27:00;;;;;;;14.85;7.30;;;;;;;19.52;50.01;101105.31;5384960;32;33980;-94
2022/05/09 05:30:04;;;;;;;13.55;7.90;;;;;;;19.09;51.20;101102.72;5340414;32;35153;-94
2022/05/09 05:33:08;;;;;;;15.48;6.43;;;;;;;20.01;48.90;101108.25;5366186;32;35880;-94
2022/05/09 05:36:13;;;;;;;14.10;6.00;;;;;;;19.32;50.83;101117.22;5395817;32;43741;-95
2022/05/09 05:39:15;;;;;;;11.82;5.75;;;;;;;19.68;49.43;101108.69;5376211;32;34516;-94
2022/05/09 05:42:20;;;;;;;9.85;5.07;;;;;;;20.49;47.34;101105.94;5400802;32;35222;-96
2022/05/09 05:45:26;;;;;;;8.85;4.85;;;;;;;21.86;43.42;101119.22;5379450;32;33733;-95
2022/05/09 05:48:34;;;;;;;10.23;5.10;;;;;;;22.74;40.85;101114.28;5374518;32;33503;-94
2022/05/09 05:51:37;;;;;;;11.55;5.32;;;;;;;21.27;43.47;101114.59;5373355;32;35333;-96
2022/05/09 05:54:42;;;;;;;14.77;5.60;;;;;;;19.95;46.42;101114.87;5365232;32;32749;-92
2022/05/09 05:58:07;;;;;;;12.25;5.85;;;;;;;21.25;43.87;101118.34;5370204;32;34705;-96
2022/05/09 06:01:12;;;;;;;10.15;5.15;;;;;;;20.71;44.68;101113.28;5337201;32;43990;-93
2022/05/09 06:04:19;;;;;;;12.45;5.03;;;;;;;20.70;44.68;101124.94;5368300;32;34303;-95
2022/05/09 06:07:23;;;;;;;12.32;4.87;;;;;;;21.27;43.38;101121.78;5360465;32;33562;-95
2022/05/09 06:10:30;;;;;;;12.23;5.37;;;;;;;20.80;44.43;101137.56;5374167;32;34193;-94
2022/05/09 06:13:45;;;;;;;10.25;4.53;;;;;;;20.04;46.01;101139.25;5374856;32;46528;-94
2022/05/09 06:16:50;;;;;;;9.90;4.97;;;;;;;20.36;45.03;101139.75;5326216;32;33439;-92
2022/05/09 06:19:57;;;;;;;13.43;5.30;;;;;;;21.30;42.98;101142.97;5376711;32;35518;-96
2022/05/09 06:23:01;;;;;;;15.65;5.25;;;;;;;21.53;42.21;101139.47;5364509;32;34363;-93
2022/05/09 06:26:05;;;;;;;13.13;4.82;;;;;;;21.69;41.98;101139.19;5383246;32;34767;-93
2022/05/09 06:29:11;;;;;;;10.43;4.62;;;;;;;21.85;41.88;101138.94;5381261;32;34224;-96
2022/05/09 06:32:16;;;;;;;9.70;4.80;;;;;;;22.17;41.65;101144.56;5380459;32;43018;-94
2022/05/09 06:35:23;;;;;;;11.40;4.97;;;;;;;22.73;40.62;101139.34;5376879;32;34324;-94
2022/05/09 06:38:27;;;;;;;7.60;4.28;;;;;;;23.87;37.68;101131.94;5360972;32;33993;-94
2022/05/09 06:41:31;;;;;;;11.68;4.78;;;;;;;24.92;36.31;101138.22;5381432;32;34310;-92
2022/05/09 06:44:35;;;;;;;11.30;4.75;;;;;;;23.35;38.69;101136.19;5340450;32;33357;-94
2022/05/09 06:47:46;;;;;;;12.18;5.60;;;;;;;23.43;38.67;101140.94;5355649;32;33545;-94
2022/05/09 06:50:49;;;;;;;11.25;4.82;;;;;;;25.38;35.19;101126.13;5367048;32;44448;-92
2022/05/09 06:53:53;;;;;;;8.82;4.62;;;;;;;23.23;38.75;101132.69;5378726;32;34552;-94
2022/05/09 06:56:56;;;;;;;11.38;5.10;;;;;;;23.78;38.43;101147.00;5349467;32;34193;-92
2022/05/09 06:59:58;;;;;;;9.88;4.32;;;;;;;26.12;33.68;101137.25;5355199;32;35470;-91
2022/05/09 07:03:03;;;;;;;7.50;3.80;;;;;;;27.17;31.76;101130.94;5352402;32;34208;-95
2022/05/09 07:06:06;;;;;;;6.82;4.43;;;;;;;27.04;32.21;101136.66;5361086;32;32682;-93
2022/05/09 07:09:38;;;;;;;9.88;4.37;;;;;;;27.02;32.07;101140.50;5371748;32;35544;-96
2022/05/09 07:12:48;;;;;;;8.38;4.45;;;;;;;26.45;32.96;101151.31;5361769;32;35249;-96
2022/05/09 07:16:04;;;;;;;7.82;3.85;;;;;;;25.85;34.56;101142.50;5393665;32;36471;-96
2022/05/09 07:19:22;;;;;;;9.68;4.75;;;;;;;25.44;34.76;101135.44;5381157;32;44069;-94
2022/05/09 07:22:25;;;;;;;9.07;4.05;;;;;;;26.11;33.80;101153.56;5368354;32;33772;-93
2022/05/09 07:25:28;;;;;;;9.82;4.10;;;;;;;27.80;31.27;101149.91;5362376;32;36658;-93
2022/05/09 07:28:31;;;;;;;10.50;4.50;;;;;;;26.83;32.88;101157.59;5386810;32;34793;-94
2022/05/09 07:31:42;;;;;;;9.45;4.50;;;;;;;27.04;32.54;101143.91;5407616;32;33474;-96
2022/05/09 07:34:58;;;;;;;8.90;4.10;;;;;;;27.47;31.32;101148.69;5384315;32;32994;-93
2022/05/09 07:38:02;;;;;;;10.95;4.10;;;;;;;27.88;30.88;101138.34;5378013;32;34039;-93
2022/05/09 07:41:11;;;;;;;10.43;3.70;;;;;;;28.24;30.10;101137.34;5360572;32;44467;-95
2022/05/09 07:44:14;;;;;;;7.97;3.92;;;;;;;28.77;29.17;101141.78;5375479;32;34242;-96
2022/05/09 07:47:17;;;;;;;7.28;3.90;;;;;;;29.37;28.59;101140.94;5375421;32;34685;-94
2022/05/09 07:50:20;;;;;;;10.82;5.00;;;;;;;28.49;28.85;101143.81;5388370;32;33797;-93
2022/05/09 07:53:34;;;;;;;14.23;4.40;;;;;;;29.63;27.69;101141.72;5400359;32;33367;-94
2022/05/09 07:56:37;;;;;;;9.00;4.10;;;;;;;27.81;30.15;101143.50;5378840;32;35717;-93
2022/05/09 07:59:42;;;;;;;9.68;4.45;;;;;;;29.51;27.72;101134.91;5387485;32;44588;-93
2022/05/09 08:02:45;;;;;;;7.15;3.83;;;;;;;28.52;29.24;101134.53;5353960;32;34028;-93
2022/05/09 08:05:49;;;;;;;8.73;4.20;;;;;;;29.25;27.26;101136.81;5386110;32;35039;-94
2022/05/09 08:08:51;;;;;;;13.25;4.10;;;;;;;28.40;28.67;101125.81;5367894;32;33948;-93
2022/05/09 08:11:54;;;;;;;7.40;4.00;;;;;;;31.25;24.64;101129.06;5387831;32;36822;-93
2022/05/09 08:14:57;;;;;;;6.87;3.70;;;;;;;29.96;25.79;101135.50;5348637;32;34463;-93
2022/05/09 08:18:02;;;;;;;9.25;4.20;;;;;;;31.38;23.99;101133.09;5361150;32;34338;-92
2022/05/09 08:21:12;;;;;;;8.60;4.03;;;;;;;33.03;21.67;101132.41;5400840;32;34793;-96
2022/05/09 08:24:19;;;;;;;13.93;5.90;;;;;;;32.46;22.26;101122.13;5392612;32;32794;-94
2022/05/09 08:27:22;;;;;;;8.15;4.07;;;;;;;29.55;25.34;101135.41;5382427;32;33963;-96
2022/05/09 08:30:24;;;;;;;9.50;4.43;;;;;;;31.98;22.19;101126.94;5373531;32;34615;-95
2022/05/09 08:33:29;;;;;;;9.25;4.70;;;;;;;32.38;21.95;101116.78;5367792;32;35348;-96
2022/05/09 08:36:49;;;;;;;8.75;4.07;;;;;;;32.82;21.06;101114.94;5370637;32;37567;-92
2022/05/09 08:39:53;;;;;;;11.00;4.00;;;;;;;32.14;21.55;101120.53;5347923;32;35860;-95
2022/05/09 08:43:11;;;;;;;6.90;4.50;;;;;;;33.40;19.74;101113.22;5377440;32;33501;-94
2022/05/09 08:46:47;;;;;;;6.95;3.72;;;;;;;31.38;21.69;101108.66;5369390;32;43285;-94
2022/05/09 08:50:26;;;;;;;6.00;3.50;;;;;;;33.10;19.94;101117.88;5369479;32;33175;-95
2022/05/09 08:53:33;;;;;;;7.32;3.97;;;;;;;33.09;19.93;101118.06;5376548;32;35589;-92
2022/05/09 08:56:47;;;;;;;7.45;4.03;;;;;;;29.96;23.34;101121.97;5376524;32;33200;-94
2022/05/09 08:59:54;;;;;;;5.95;3.72;;;;;;;32.41;21.12;101116.41;5368500;32;35787;-94
2022/05/09 09:03:29;;;;;;;12.40;4.70;;;;;;;32.08;21.35;101116.69;5373473;32;33774;-92
2022/05/09 09:07:00;;;;;;;8.80;4.20;;;;;;;31.57;22.06;101115.50;5361041;32;37218;-95
2022/05/09 09:10:47;;;;;;;6.93;3.70;;;;;;;32.49;20.68;101119.06;5378614;32;36267;-92
2022/05/09 09:14:15;;;;;;;10.50;4.15;;;;;;;33.79;20.11;101122.88;5364537;32;36274;-94
2022/05/09 09:17:24;;;;;;;11.82;4.80;;;;;;;30.77;23.42;101131.94;5366125;32;45075;-95
2022/05/09 09:20:48;;;;;;;8.32;4.40;;;;;;;31.22;23.10;101121.25;5373464;32;34428;-93
2022/05/09 09:24:21;;;;;;;8.18;3.95;;;;;;;33.90;18.89;101119.62;5354833;32;33610;-94
2022/05/09 09:27:26;;;;;;;6.62;3.72;;;;;;;32.95;19.58;101127.91;5371804;32;34051;-91
2022/05/09 09:30:30;;;;;;;6.45;4.00;;;;;;;33.10;19.64;101117.88;5374535;32;35733;-95
2022/05/09 09:33:33;;;;;;;10.45;4.32;;;;;;;31.03;22.15;101121.66;5362078;32;35423;-95
2022/05/09 09:37:02;;;;;;;8.35;4.85;;;;;;;29.85;24.01;101129.38;5385576;32;35019;-93
2022/05/09 09:40:06;;;;;;;9.27;4.35;;;;;;;27.63;26.61;101130.00;5381453;32;36438;-93
2022/05/09 09:43:09;;;;;;;6.32;4.28;;;;;;;27.75;27.04;101136.03;5384441;32;35622;-93
2022/05/09 09:46:13;;;;;;;8.20;4.60;;;;;;;27.25;27.46;101125.66;5357316;32;43059;-96
2022/05/09 09:49:19;;;;;;;6.97;4.40;;;;;;;27.01;28.16;101131.56;5363815;32;34081;-94
2022/05/09 09:52:48;;;;;;;7.90;4.43;;;;;;;26.20;29.01;101136.53;5386195;32;34578;-93
2022/05/09 09:56:03;;;;;;;7.32;4.57;;;;;;;26.04;29.85;101130.91;5374904;32;34536;-94
2022/05/09 09:59:09;;;;;;;8.68;4.50;;;;;;;24.43;32.05;101122.81;5363019;32;34862;-91
2022/05/09 10:02:17;;;;;;;10.68;5.05;;;;;;;26.03;29.81;101123.81;5377593;32;45649;-93
2022/05/09 10:05:31;;;;;;;12.85;4.72;;;;;;;26.79;28.53;101121.97;5375197;32;35074;-92
2022/05/09 10:08:37;;;;;;;10.25;4.80;;;;;;;26.22;29.59;101117.56;5371797;32;35062;-93
2022/05/09 10:11:39;;;;;;;7.60;4.78;;;;;;;25.26;30.78;101119.13;5358009;32;44510;-91
2022/05/09 10:14:42;;;;;;;6.30;4.30;;;;;;;26.75;28.91;101111.66;5334572;32;44638;-92
2022/05/09 10:17:45;;;;;;;12.48;4.45;;;;;;;26.25;30.86;101106.50;5378609;32;34876;-92
2022/05/09 10:20:51;;;;;;;11.98;4.28;;;;;;;26.37;30.94;101114.25;5357209;32;34058;-93
2022/05/09 10:27:20;;;;;;;10.07;4.65;;;;;;;28.98;27.13;101091.88;5382122;32;44394;-93
2022/05/09 10:30:29;;;;;;;9.98;4.95;;;;;;;30.49;24.77;101088.91;5379460;32;36843;-91
2022/05/09 10:33:39;;;;;;;12.15;4.35;;;;;;;31.12;23.58;101088.03;5371426;32;34157;-96
2022/05/09 10:37:07;;;;;;;8.88;4.15;;;;;;;30.71;23.71;101084.63;5368401;32;43297;-90
2022/05/09 10:40:10;;;;;;;9.48;4.00;;;;;;;30.81;22.69;101081.72;5380185;32;44872;-90
2022/05/09 10:43:32;;;;;;;7.32;3.60;;;;;;;31.33;22.01;101083.88;5363204;32;485833;-91
2022/05/09 10:46:51;;;;;;;7.35;3.53;;;;;;;30.39;23.04;101082.81;5369674;32;36137;-90
2022/05/09 10:50:15;;;;;;;8.02;3.90;;;;;;;29.61;24.22;101084.13;5384368;32;37045;-94
2022/05/09 10:53:27;;;;;;;6.30;3.85;;;;;;;30.53;23.63;101078.53;5369751;32;44517;-92
2022/05/09 10:56:33;;;;;;;8.32;3.80;;;;;;;31.33;22.71;101065.72;5367935;32;36479;-92
2022/05/09 10:59:41;;;;;;;5.78;3.67;;;;;;;31.14;22.31;101077.00;5370437;32;36685;-92
2022/05/09 11:03:00;;;;;;;10.13;3.97;;;;;;;29.67;24.50;101080.75;5356298;32;44379;-94
2022/05/09 11:06:26;;;;;;;9.18;3.90;;;;;;;30.49;23.56;101067.19;5362759;32;33821;-93
2022/05/09 11:09:48;;;;;;;9.55;4.50;;;;;;;30.65;23.34;101088.84;5379735;32;36420;-92
2022/05/09 11:13:08;;;;;;;8.10;3.83;;;;;;;31.29;22.81;101069.81;5366876;32;34545;-93
2022/05/09 11:16:33;;;;;;;6.25;3.40;;;;;;;28.77;25.69;101086.84;5359123;32;44452;-95
2022/05/09 11:19:58;;;;;;;7.22;3.72;;;;;;;31.81;21.91;101075.41;5377970;32;43624;-93
2022/05/09 11:23:04;;;;;;;10.27;4.18;;;;;;;31.59;21.98;101080.84;5367932;32;33868;-93
2022/05/09 11:26:41;;;;;;;6.32;3.87;;;;;;;30.96;22.94;101077.25;5383153;32;34270;-94
2022/05/09 11:30:12;;;;;;;7.53;4.35;;;;;;;30.23;23.71;101089.09;5379004;32;34710;-95
2022/05/09 11:33:43;;;;;;;7.45;3.90;;;;;;;33.49;21.35;101074.97;5394681;32;44513;-91
2022/05/09 11:37:02;;;;;;;7.13;3.83;;;;;;;35.38;18.65;101074.03;5393362;32;44575;-93
2022/05/09 11:40:26;;;;;;;6.80;3.70;;;;;;;35.57;18.76;101051.41;5377965;32;33659;-94
2022/05/09 11:43:52;;;;;;;6.37;3.65;;;;;;;36.71;17.35;101045.66;5389307;32;35125;-92
2022/05/09 11:47:29;;;;;;;6.28;3.28;;;;;;;35.60;17.84;101055.59;5396111;32;35164;-91
2022/05/09 11:51:01;;;;;;;4.45;3.12;;;;;;;34.94;17.67;101048.88;5390914;32;34930;-92
2022/05/09 11:54:08;;;;;;;8.20;3.33;;;;;;;34.54;17.48;101053.25;5387949;32;34654;-93
2022/05/09 11:57:22;;;;;;;6.57;3.20;;;;;;;34.27;17.91;101048.66;5381199;32;44635;-94
2022/05/09 12:00:29;;;;;;;6.68;3.03;;;;;;;33.23;18.96;101051.81;5410555;32;34425;-94
2022/05/09 12:03:40;;;;;;;4.43;3.12;;;;;;;33.85;18.66;101053.94;5392298;32;35987;-94
2022/05/09 12:06:43;;;;;;;9.27;3.47;;;;;;;33.78;18.71;101057.66;5377167;32;43878;-93
2022/05/09 12:10:03;;;;;;;4.93;3.12;;;;;;;31.27;21.89;101056.41;5385420;32;34149;-95
2022/05/09 12:13:08;;;;;;;4.55;3.10;;;;;;;31.89;20.72;101065.53;5368913;32;34025;-93
2022/05/09 12:16:35;;;;;;;5.10;3.40;;;;;;;29.35;23.54;101069.84;5357270;32;44584;-94
2022/05/09 12:19:38;;;;;;;4.87;3.22;;;;;;;31.27;21.96;101061.84;5409420;32;34429;-94
2022/05/09 12:22:49;;;;;;;5.57;3.10;;;;;;;30.46;22.27;101064.81;5376734;32;43071;-96
2022/05/09 12:26:03;;;;;;;6.70;3.40;;;;;;;29.98;22.56;101063.00;5404700;32;34826;-94
2022/05/09 12:29:17;;;;;;;5.82;3.78;;;;;;;27.82;26.48;101074.97;5384857;32;33069;-94
2022/05/09 12:32:20;;;;;;;5.45;2.90;;;;;;;26.49;29.15;101093.44;5353127;32;34221;-93
2022/05/09 12:35:24;;;;;;;6.72;2.53;;;;;;;25.77;28.93;101089.38;5388487;32;35681;-93
2022/05/09 12:38:38;;;;;;;21.62;3.95;;;;;;;25.42;28.64;101084.47;5377960;32;35646;-96
2022/05/09 12:41:57;;;;;;;5.33;2.53;;;;;;;24.00;31.64;101078.94;5393378;32;45003;-93
2022/05/09 12:45:03;;;;;;;7.70;2.85;;;;;;;23.95;31.88;101097.25;5386374;32;32694;-94
2022/05/09 12:48:11;;;;;;;4.15;2.95;;;;;;;23.61;34.02;101082.25;5367891;32;33999;-96
2022/05/09 12:51:14;;;;;;;5.35;3.22;;;;;;;23.82;34.29;101079.62;5391364;32;42941;-92
2022/05/09 12:54:19;;;;;;;8.15;3.75;;;;;;;24.33;33.22;101082.41;5366942;32;32463;-92
2022/05/09 12:57:32;;;;;;;6.28;2.75;;;;;;;24.02;34.86;101087.72;5346107;32;35492;-96
2022/05/09 13:00:37;;;;;;;4.85;2.70;;;;;;;24.49;33.60;101068.56;5367993;32;35862;-94
2022/05/09 13:04:03;;;;;;;9.20;3.00;;;;;;;23.34;35.23;101072.81;5358618;32;35171;-95
2022/05/09 13:07:09;;;;;;;4.97;2.72;;;;;;;23.96;36.02;101069.47;5393677;32;33780;-97
2022/05/09 13:10:13;;;;;;;7.30;3.42;;;;;;;22.87;38.96;101076.66;5350496;32;44525;-92
2022/05/09 13:13:30;;;;;;;6.65;2.97;;;;;;;23.32;45.10;101071.25;5372417;32;35959;-93
2022/05/09 13:16:38;;;;;;;6.18;3.05;;;;;;;22.90;39.23;101073.72;5335546;32;32947;-92
2022/05/09 13:19:49;;;;;;;4.60;2.78;;;;;;;23.11;37.98;101071.13;5368949;32;42599;-95
2022/05/09 13:23:00;;;;;;;5.50;2.45;;;;;;;23.68;37.25;101060.16;5379744;32;34064;-91
2022/05/09 13:26:06;;;;;;;4.47;2.37;;;;;;;22.86;38.80;101056.12;5369196;32;33417;-92
2022/05/09 13:29:09;;;;;;;8.00;2.55;;;;;;;23.11;34.91;101058.59;5374632;32;35325;-91
2022/05/09 13:32:24;;;;;;;11.07;3.40;;;;;;;24.15;35.32;101047.25;5363232;32;43120;-95
2022/05/09 13:35:37;;;;;;;7.82;3.00;;;;;;;23.10;39.50;101050.69;5371996;32;34083;-96
2022/05/09 13:38:42;;;;;;;5.32;2.85;;;;;;;24.29;37.99;101040.69;5376511;32;43902;-94
2022/05/09 13:41:45;;;;;;;6.55;3.08;;;;;;;24.29;39.11;101021.91;5381883;32;35069;-96
2022/05/09 13:44:51;;;;;;;8.05;3.10;;;;;;;24.30;38.63;101028.97;5373563;32;33285;-94
2022/05/09 13:48:00;;;;;;;6.57;3.12;;;;;;;23.50;43.45;101024.09;5381490;32;35990;-96
2022/05/09 13:51:06;;;;;;;8.10;4.12;;;;;;;23.36;41.79;101019.03;5385802;32;34841;-94
2022/05/09 13:54:13;;;;;;;8.27;3.55;;;;;;;22.67;45.40;101019.28;5362719;32;33734;-96
2022/05/09 13:57:20;;;;;;;11.48;3.67;;;;;;;23.48;42.55;101021.56;5364724;32;34162;-95
2022/05/09 14:00:24;;;;;;;11.18;5.32;;;;;;;24.13;40.56;101037.63;5398210;32;35625;-92
2022/05/09 14:03:39;;;;;;;8.48;4.10;;;;;;;24.95;37.32;101021.47;5372603;32;34631;-94
2022/05/09 14:06:47;;;;;;;11.32;3.97;;;;;;;24.88;38.75;101026.56;5388216;32;44522;-96
2022/05/09 14:09:50;;;;;;;8.43;3.70;;;;;;;24.04;39.85;101012.41;5371758;32;34259;-94
2022/05/09 14:12:57;;;;;;;6.03;3.80;;;;;;;24.13;39.25;101037.63;5402852;32;34219;-96
2022/05/09 14:16:11;;;;;;;8.35;3.70;;;;;;;24.23;37.29;101031.34;5376569;32;34073;-96
2022/05/09 14:19:24;;;;;;;8.23;4.18;;;;;;;23.76;35.63;101036.25;5372106;32;44066;-96
2022/05/09 14:22:29;;;;;;;7.25;3.62;;;;;;;24.36;34.01;101033.84;5398686;32;33202;-95
2022/05/09 14:32:51;;;;;;;6.37;3.70;;;;;;;25.09;36.10;101032.72;5371442;32;32334;-94
2022/05/09 14:35:54;;;;;;;8.63;3.90;;;;;;;23.59;36.45;101018.00;5357845;32;35478;-94
2022/05/09 14:38:59;;;;;;;7.47;3.62;;;;;;;23.49;37.94;101025.94;5386458;32;35578;-94
2022/05/09 14:42:14;;;;;;;11.12;3.97;;;;;;;24.14;36.25;101025.88;5367004;32;35318;-93
2022/05/09 14:45:18;;;;;;;11.60;4.45;;;;;;;24.45;35.42;101016.06;5353691;32;44178;-92
2022/05/09 14:48:29;;;;;;;9.93;4.07;;;;;;;24.05;38.12;101027.53;5379533;32;33813;-90
2022/05/09 14:51:32;;;;;;;11.52;4.15;;;;;;;24.50;38.05;101021.88;5365806;32;37540;-91
2022/05/09 14:54:41;;;;;;;;;;;;;;;23.50;40.40;101018.75;5392631;32;33860;-92